Laketon, Indiana
Current Conditions -  °F | °C
As of 7:15 PM on Sunday 23 Nov 2014 (Local Time) from KRCR Reporting Station
Moderate Rain Moderate Rain  
Wind Chill: 11°   Ceiling: 500
Heat Index: 11°   Visibility: 5mi
Dew Point: 11°   Wind: 6mph
Humidity: 100%   Direction: 120°ESE
Pressure: 29.4"   Gusts: NA
Location:  40.97°N, 85.84°W
Report Text: KRCR 240015Z AUTO 12005KT 5SM RA BKN005 OVC014 11/11 A2940 RMK AO2 P0003
Loading
Personal Weather Stations






























Interactive Weather Map New forecast layout! Learn more

10-Day Weather Forecast

Advertisements
Track Severe Weather on mobile